Time;durP1;ratioP1;P1;durP2;ratioP2;P2;SDS_P1;SDS_P2;PMS_P1;PMS_P2;Temp;Humidity;BMP_temperature;BMP_pressure;BME280_temperature;BME280_humidity;BME280_pressure;Samples;Min_cycle;Max_cycle;Signal;HPM_P1;HPM_P2
2022/08/06 00:01:12;;;;;;;0.05;0.05;;;12.60;99.90;;;;;;4973365;28;20043;-83
2022/08/06 00:03:39;;;;;;;0.05;0.05;;;12.60;99.90;;;;;;4973720;28;20039;-84
2022/08/06 00:06:07;;;;;;;0.03;0.03;;;;;;;;;;4976686;28;20139;-85
2022/08/06 00:08:35;;;;;;;0.10;0.10;;;12.60;99.90;;;;;;4974614;28;20042;-84
2022/08/06 00:11:03;;;;;;;0.10;0.10;;;12.60;99.90;;;;;;4977135;28;20069;-83
2022/08/06 00:13:31;;;;;;;0.10;0.10;;;12.60;99.90;;;;;;4977239;28;20035;-83
2022/08/06 00:16:01;;;;;;;0.10;0.10;;;12.70;99.90;;;;;;4976293;28;20037;-86
2022/08/06 00:18:47;;;;;;;0.10;0.10;;;12.60;99.90;;;;;;4973069;28;20035;-85
2022/08/06 00:21:15;;;;;;;0.10;0.10;;;12.60;99.90;;;;;;4969429;28;20042;-84
2022/08/06 00:24:02;;;;;;;0.10;0.10;;;12.60;99.90;;;;;;4974561;28;20043;-84
2022/08/06 00:26:29;;;;;;;0.10;0.10;;;12.50;99.90;;;;;;4973495;28;20047;-84
2022/08/06 00:28:57;;;;;;;0.10;0.10;;;12.30;99.90;;;;;;4975808;28;20055;-84
2022/08/06 00:31:24;;;;;;;0.10;0.10;;;12.30;99.90;;;;;;4974836;28;20031;-84
2022/08/06 00:33:56;;;;;;;0.10;0.10;;;12.30;99.90;;;;;;4971568;28;20027;-85
2022/08/06 00:36:24;;;;;;;0.00;0.00;;;12.20;99.90;;;;;;4971805;28;20038;-83
2022/08/06 00:38:56;;;;;;;0.10;0.10;;;12.30;99.90;;;;;;4972571;28;20078;-83
2022/08/06 00:41:23;;;;;;;0.10;0.10;;;12.20;99.90;;;;;;4974456;28;20039;-84
2022/08/06 00:43:58;;;;;;;0.05;0.05;;;12.10;99.90;;;;;;4975035;28;20049;-84
2022/08/06 00:46:28;;;;;;;0.10;0.10;;;12.20;99.90;;;;;;4973235;28;20043;-84
2022/08/06 00:48:55;;;;;;;0.10;0.10;;;12.20;99.90;;;;;;4976146;28;20031;-84
2022/08/06 00:51:22;;;;;;;0.10;0.10;;;12.20;99.90;;;;;;4969781;28;20043;-85
2022/08/06 00:53:49;;;;;;;0.05;0.05;;;12.20;99.90;;;;;;4972590;28;20063;-83
2022/08/06 00:56:24;;;;;;;0.00;0.00;;;12.20;99.90;;;;;;4975214;28;20032;-84
2022/08/06 00:58:55;;;;;;;0.10;0.10;;;12.20;99.90;;;;;;4975977;28;20039;-85
2022/08/06 01:01:31;;;;;;;0.00;0.00;;;12.20;99.90;;;;;;4974713;28;20058;-84
2022/08/06 01:04:17;;;;;;;0.08;0.08;;;12.20;99.90;;;;;;4972985;28;20059;-85
2022/08/06 01:06:43;;;;;;;0.10;0.10;;;12.10;99.90;;;;;;4961304;28;20087;-84
2022/08/06 01:09:22;;;;;;;0.10;0.10;;;12.10;99.90;;;;;;4972334;28;20036;-84
2022/08/06 01:11:50;;;;;;;0.00;0.00;;;;;;;;;;4969466;28;20121;-84
2022/08/06 01:14:18;;;;;;;0.10;0.10;;;12.10;99.90;;;;;;4973622;28;20028;-84
2022/08/06 01:17:14;;;;;;;0.10;0.10;;;12.10;99.90;;;;;;4969752;28;20055;-84
2022/08/06 01:19:58;;;;;;;0.10;0.10;;;11.90;99.90;;;;;;4974814;28;20036;-83
2022/08/06 01:23:06;;;;;;;0.08;0.08;;;11.90;99.90;;;;;;4964962;28;20111;-85
2022/08/06 01:26:23;;;;;;;0.08;0.08;;;11.90;99.90;;;;;;4975502;28;20015;-85
2022/08/06 01:28:58;;;;;;;0.10;0.10;;;11.80;99.90;;;;;;4968261;28;20043;-86
2022/08/06 01:31:32;;;;;;;0.10;0.10;;;11.90;99.90;;;;;;4976323;28;20046;-83
2022/08/06 01:34:09;;;;;;;0.10;0.10;;;11.80;99.90;;;;;;4974446;28;20046;-84
2022/08/06 01:36:43;;;;;;;0.10;0.10;;;11.80;99.90;;;;;;4977039;28;20132;-85
2022/08/06 01:39:18;;;;;;;0.10;0.10;;;11.80;99.90;;;;;;4972902;28;20040;-84
2022/08/06 01:42:05;;;;;;;0.10;0.10;;;11.80;99.90;;;;;;4967626;28;20062;-84
2022/08/06 01:44:38;;;;;;;0.10;0.10;;;11.90;99.90;;;;;;4966754;28;20080;-84
2022/08/06 01:47:18;;;;;;;0.10;0.10;;;11.90;99.90;;;;;;4973013;28;20051;-84
2022/08/06 01:49:49;;;;;;;0.10;0.10;;;11.90;99.90;;;;;;4974870;28;20035;-84
2022/08/06 01:52:34;;;;;;;0.10;0.10;;;11.90;99.90;;;;;;4974318;28;20048;-85
2022/08/06 01:55:08;;;;;;;0.10;0.10;;;11.90;99.90;;;;;;4975467;28;20035;-84
2022/08/06 01:57:43;;;;;;;0.00;0.00;;;11.80;99.90;;;;;;4973100;28;20056;-85
2022/08/06 02:00:35;;;;;;;0.10;0.10;;;11.80;99.90;;;;;;4972457;28;20095;-83
2022/08/06 02:03:09;;;;;;;0.00;0.00;;;11.70;99.90;;;;;;4977607;28;20031;-84
2022/08/06 02:05:37;;;;;;;0.10;0.10;;;11.60;99.90;;;;;;4976784;28;20028;-83
2022/08/06 02:08:14;;;;;;;0.10;0.10;;;11.60;99.90;;;;;;4974238;28;20043;-83
2022/08/06 02:11:06;;;;;;;0.10;0.10;;;11.50;99.90;;;;;;4976432;28;20054;-84
2022/08/06 02:13:54;;;;;;;0.10;0.10;;;11.50;99.90;;;;;;4972349;28;20023;-84
2022/08/06 02:16:24;;;;;;;0.10;0.10;;;11.50;99.90;;;;;;4975407;28;20031;-82
2022/08/06 02:18:56;;;;;;;0.10;0.10;;;11.40;99.90;;;;;;4968814;28;20038;-85
2022/08/06 02:21:24;;;;;;;0.10;0.10;;;11.40;99.90;;;;;;4979629;28;20030;-84
2022/08/06 02:24:00;;;;;;;0.10;0.10;;;11.50;99.90;;;;;;4970203;28;20031;-85
2022/08/06 02:26:28;;;;;;;0.10;0.10;;;11.50;99.90;;;;;;4979746;28;20075;-85
2022/08/06 02:29:00;;;;;;;0.10;0.10;;;11.50;99.90;;;;;;4976528;28;20074;-86
2022/08/06 02:31:28;;;;;;;0.10;0.10;;;11.50;99.90;;;;;;4979143;28;20031;-83
2022/08/06 02:34:13;;;;;;;0.10;0.10;;;11.50;99.90;;;;;;4976336;28;20035;-85
2022/08/06 02:36:44;;;;;;;0.10;0.10;;;11.40;99.90;;;;;;4976183;28;20036;-85
2022/08/06 02:39:24;;;;;;;0.10;0.10;;;11.40;99.90;;;;;;4978273;28;20031;-85
2022/08/06 02:42:17;;;;;;;0.10;0.10;;;11.30;99.90;;;;;;4987221;28;20050;-84
2022/08/06 02:44:48;;;;;;;0.10;0.10;;;11.10;99.90;;;;;;4977104;28;20035;-84
2022/08/06 02:47:22;;;;;;;0.10;0.10;;;11.00;99.90;;;;;;4977384;28;20041;-84
2022/08/06 02:50:15;;;;;;;0.10;0.10;;;10.90;99.90;;;;;;4978250;28;20043;-86
2022/08/06 02:52:46;;;;;;;0.10;0.10;;;11.00;99.90;;;;;;4975168;28;20050;-86
2022/08/06 02:55:27;;;;;;;0.10;0.10;;;11.00;99.90;;;;;;4976344;28;20047;-85
2022/08/06 02:58:07;;;;;;;0.10;0.10;;;11.00;99.90;;;;;;4973463;28;20027;-85
2022/08/06 03:00:41;;;;;;;0.10;0.10;;;11.10;99.90;;;;;;4969600;28;20059;-85
2022/08/06 03:03:20;;;;;;;0.10;0.10;;;11.00;99.90;;;;;;4976194;28;20038;-84
2022/08/06 03:06:03;;;;;;;0.10;0.10;;;11.00;99.90;;;;;;4977270;28;20031;-85
2022/08/06 03:08:34;;;;;;;0.10;0.10;;;10.90;99.90;;;;;;4991227;28;20038;-85
2022/08/06 03:11:05;;;;;;;0.10;0.10;;;11.10;99.90;;;;;;4993493;28;20035;-85
2022/08/06 03:13:32;;;;;;;0.10;0.10;;;;;;;;;;4975177;28;20072;-84
2022/08/06 03:16:04;;;;;;;0.10;0.10;;;11.00;99.90;;;;;;4974637;28;20051;-86
2022/08/06 03:18:52;;;;;;;0.10;0.10;;;11.10;99.90;;;;;;4976880;28;20031;-85
2022/08/06 03:21:41;;;;;;;0.10;0.10;;;11.10;99.90;;;;;;4990843;28;20066;-85
2022/08/06 03:24:18;;;;;;;0.10;0.10;;;11.10;99.90;;;;;;4974750;28;20051;-84
2022/08/06 03:26:47;;;;;;;0.10;0.10;;;11.10;99.90;;;;;;4976650;28;20036;-84
2022/08/06 03:29:14;;;;;;;0.10;0.10;;;;;;;;;;4976453;28;20046;-84
2022/08/06 03:31:42;;;;;;;0.10;0.10;;;11.20;99.90;;;;;;4977182;28;20051;-85
2022/08/06 03:34:27;;;;;;;0.10;0.10;;;11.20;99.90;;;;;;4973601;28;20035;-84
2022/08/06 03:36:56;;;;;;;0.10;0.10;;;11.20;99.90;;;;;;4977092;28;20044;-84
2022/08/06 03:39:28;;;;;;;0.10;0.10;;;11.10;99.90;;;;;;4977156;28;20033;-85
2022/08/06 03:41:56;;;;;;;0.10;0.10;;;11.10;99.90;;;;;;4975700;28;20023;-86
2022/08/06 03:44:35;;;;;;;0.10;0.10;;;11.20;99.90;;;;;;4974916;28;20047;-82
2022/08/06 03:47:06;;;;;;;0.10;0.10;;;11.20;99.90;;;;;;4976399;28;20023;-84
2022/08/06 03:49:38;;;;;;;0.10;0.10;;;11.10;99.90;;;;;;4991507;28;20044;-85
2022/08/06 03:52:10;;;;;;;0.10;0.10;;;11.20;99.90;;;;;;4976849;28;20056;-84
2022/08/06 03:54:46;;;;;;;0.10;0.10;;;11.20;99.90;;;;;;4981870;28;20035;-85
2022/08/06 03:57:18;;;;;;;0.10;0.10;;;11.20;99.90;;;;;;4975941;28;20043;-84
2022/08/06 04:00:00;;;;;;;0.10;0.10;;;11.20;99.90;;;;;;4973006;28;20108;-86
2022/08/06 04:02:30;;;;;;;0.10;0.10;;;11.20;99.90;;;;;;4978812;28;20031;-85
2022/08/06 04:05:16;;;;;;;0.00;0.00;;;11.30;99.90;;;;;;4970317;28;20041;-84
2022/08/06 04:07:50;;;;;;;0.10;0.10;;;11.20;99.90;;;;;;4975589;28;20039;-84
2022/08/06 04:10:23;;;;;;;0.10;0.10;;;11.20;99.90;;;;;;4974739;28;20340;-85
2022/08/06 04:13:03;;;;;;;0.10;0.10;;;11.20;99.90;;;;;;4971582;28;20059;-85
2022/08/06 04:15:52;;;;;;;0.10;0.10;;;11.20;99.90;;;;;;4974307;28;20053;-85
2022/08/06 04:18:26;;;;;;;0.08;0.08;;;11.20;99.90;;;;;;4973728;28;20038;-84
2022/08/06 04:20:59;;;;;;;0.10;0.10;;;11.20;99.90;;;;;;4970821;28;20043;-83
2022/08/06 04:23:46;;;;;;;0.00;0.00;;;;;;;;;;4974690;28;20067;-85
2022/08/06 04:26:17;;;;;;;0.10;0.10;;;11.30;99.90;;;;;;4989517;28;20043;-84
2022/08/06 04:28:48;;;;;;;0.10;0.10;;;11.30;99.90;;;;;;4976664;28;20074;-85
2022/08/06 04:31:26;;;;;;;0.10;0.10;;;11.30;99.90;;;;;;4988234;28;20039;-82
2022/08/06 04:34:18;;;;;;;0.10;0.10;;;11.30;99.90;;;;;;4971257;28;20095;-82
2022/08/06 04:36:48;;;;;;;0.00;0.00;;;11.30;99.90;;;;;;4969297;28;20047;-84
2022/08/06 04:39:21;;;;;;;0.00;0.00;;;11.30;99.90;;;;;;4972506;28;20047;-83
2022/08/06 04:42:04;;;;;;;0.10;0.10;;;11.40;99.90;;;;;;4975857;28;20051;-83
2022/08/06 04:44:32;;;;;;;0.10;0.10;;;11.40;99.90;;;;;;4988292;28;20147;-85
2022/08/06 04:47:01;;;;;;;0.10;0.10;;;11.50;99.90;;;;;;4973348;28;20047;-83
2022/08/06 04:49:28;;;;;;;0.10;0.10;;;11.50;99.90;;;;;;4974323;28;20023;-84
2022/08/06 04:52:24;;;;;;;0.10;0.10;;;11.50;99.90;;;;;;4975761;28;20103;-84
2022/08/06 04:55:11;;;;;;;0.10;0.10;;;11.60;99.90;;;;;;4975275;28;20088;-84
2022/08/06 04:57:51;;;;;;;0.10;0.10;;;11.60;99.90;;;;;;4987273;28;20054;-82
2022/08/06 05:00:25;;;;;;;0.10;0.10;;;11.60;99.90;;;;;;4972730;28;20039;-83
2022/08/06 05:03:00;;;;;;;0.10;0.10;;;11.70;99.90;;;;;;4977284;28;20051;-82
2022/08/06 05:05:28;;;;;;;0.10;0.10;;;11.80;99.90;;;;;;4976836;28;20032;-83
2022/08/06 05:07:58;;;;;;;0.00;0.00;;;11.80;99.90;;;;;;4977086;28;20035;-82
2022/08/06 05:10:34;;;;;;;0.10;0.10;;;11.80;99.90;;;;;;4972323;28;20066;-83
2022/08/06 05:13:05;;;;;;;0.00;0.00;;;11.80;99.90;;;;;;4967652;28;20062;-83
2022/08/06 05:15:38;;;;;;;0.10;0.10;;;11.80;99.90;;;;;;4973520;28;20023;-81
2022/08/06 05:18:10;;;;;;;0.10;0.10;;;11.90;99.90;;;;;;4973364;28;20031;-82
2022/08/06 05:20:57;;;;;;;0.10;0.10;;;;;;;;;;4976650;28;20095;-83
2022/08/06 05:23:34;;;;;;;0.10;0.10;;;12.20;99.90;;;;;;4970544;28;20027;-86
2022/08/06 05:26:02;;;;;;;0.10;0.10;;;;;;;;;;4974469;28;20055;-84
2022/08/06 05:28:29;;;;;;;0.10;0.10;;;;;;;;;;4971720;28;20051;-83
2022/08/06 05:30:56;;;;;;;0.10;0.10;;;;;;;;;;4977073;28;20063;-82
2022/08/06 05:33:25;;;;;;;0.10;0.10;;;12.40;99.90;;;;;;4969260;28;20047;-83
2022/08/06 05:35:56;;;;;;;0.10;0.10;;;12.40;99.90;;;;;;4971746;28;20023;-83
2022/08/06 05:38:31;;;;;;;0.10;0.10;;;12.50;99.90;;;;;;4972137;28;20043;-81
2022/08/06 05:41:03;;;;;;;0.08;0.08;;;12.60;99.90;;;;;;4971123;28;20057;-83
2022/08/06 05:43:33;;;;;;;0.00;0.00;;;12.70;99.90;;;;;;4976186;28;20393;-83
2022/08/06 05:46:21;;;;;;;0.00;0.00;;;12.70;99.90;;;;;;4975981;28;20100;-82
2022/08/06 05:48:54;;;;;;;0.10;0.10;;;12.70;99.90;;;;;;4976117;28;20047;-84
2022/08/06 05:51:28;;;;;;;0.00;0.00;;;12.80;99.90;;;;;;4974169;28;20047;-83
2022/08/06 05:54:17;;;;;;;0.00;0.00;;;12.80;99.90;;;;;;4971772;28;20031;-83
2022/08/06 05:56:48;;;;;;;0.10;0.10;;;12.80;99.90;;;;;;4974201;28;20058;-82
2022/08/06 05:59:24;;;;;;;0.00;0.00;;;12.90;99.90;;;;;;4974794;28;20031;-83
2022/08/06 06:02:12;;;;;;;0.00;0.00;;;13.10;99.90;;;;;;4978617;28;20059;-83
2022/08/06 06:04:43;;;;;;;0.00;0.00;;;12.90;99.90;;;;;;4990184;28;20031;-82
2022/08/06 06:07:13;;;;;;;0.00;0.00;;;13.10;99.90;;;;;;4976194;28;20035;-82
2022/08/06 06:10:03;;;;;;;0.00;0.00;;;13.30;99.90;;;;;;4975143;28;20099;-83
2022/08/06 06:12:31;;;;;;;0.00;0.00;;;13.30;99.90;;;;;;4975881;28;20273;-82
2022/08/06 06:15:00;;;;;;;0.00;0.00;;;13.40;99.90;;;;;;4973515;28;20040;-82
2022/08/06 06:17:54;;;;;;;0.00;0.00;;;13.50;99.90;;;;;;4976541;28;20035;-83
2022/08/06 06:20:39;;;;;;;0.00;0.00;;;13.50;99.90;;;;;;4974464;28;20038;-83
2022/08/06 06:23:31;;;;;;;0.00;0.00;;;13.70;99.90;;;;;;4973207;28;20094;-82
2022/08/06 06:26:12;;;;;;;0.00;0.00;;;13.70;99.90;;;;;;4976734;28;20387;-82
2022/08/06 06:29:12;;;;;;;0.00;0.00;;;13.80;99.90;;;;;;4971430;28;20089;-82
2022/08/06 06:31:49;;;;;;;0.10;0.10;;;14.00;99.90;;;;;;4986766;28;20036;-81
2022/08/06 06:34:44;;;;;;;0.00;0.00;;;14.10;99.90;;;;;;4977892;28;20035;-82
2022/08/06 06:37:19;;;;;;;0.10;0.10;;;14.00;99.90;;;;;;4975290;28;20032;-82
2022/08/06 06:39:54;;;;;;;0.00;0.00;;;14.00;99.90;;;;;;4976121;28;20042;-82
2022/08/06 06:42:33;;;;;;;0.00;0.00;;;14.00;99.90;;;;;;4978872;28;20041;-83
2022/08/06 06:45:07;;;;;;;0.00;0.00;;;14.00;99.90;;;;;;4978360;28;20050;-81
2022/08/06 06:47:59;;;;;;;0.00;0.00;;;14.20;99.90;;;;;;4974284;28;20116;-84
2022/08/06 06:50:33;;;;;;;0.00;0.00;;;14.20;99.90;;;;;;4976491;28;20036;-84
2022/08/06 06:53:03;;;;;;;0.00;0.00;;;14.30;99.90;;;;;;4989182;28;20043;-82
2022/08/06 06:55:40;;;;;;;0.00;0.00;;;14.30;99.90;;;;;;4974516;28;20032;-81
2022/08/06 06:58:32;;;;;;;0.05;0.05;;;14.30;99.90;;;;;;4976623;28;20051;-82
2022/08/06 07:01:00;;;;;;;0.05;0.05;;;14.60;99.90;;;;;;4978075;28;20032;-82
2022/08/06 07:03:48;;;;;;;0.00;0.00;;;14.60;99.90;;;;;;4972457;28;20055;-82
2022/08/06 07:06:17;;;;;;;0.00;0.00;;;14.70;99.90;;;;;;4972557;28;20072;-83
2022/08/06 07:09:06;;;;;;;0.00;0.00;;;14.80;99.90;;;;;;4977042;28;20027;-82
2022/08/06 07:11:44;;;;;;;0.00;0.00;;;14.90;99.90;;;;;;4990899;28;20035;-83
2022/08/06 07:14:34;;;;;;;0.00;0.00;;;14.90;99.90;;;;;;4972760;28;20042;-83
2022/08/06 07:17:03;;;;;;;0.00;0.00;;;14.90;99.90;;;;;;4974876;28;20075;-83
2022/08/06 07:19:53;;;;;;;0.00;0.00;;;14.90;99.90;;;;;;4964071;29;20066;-83
2022/08/06 07:22:22;;;;;;;0.00;0.00;;;15.00;99.90;;;;;;4971850;28;20039;-85
2022/08/06 07:24:52;;;;;;;0.00;0.00;;;15.10;99.90;;;;;;4971623;28;20050;-85
2022/08/06 07:27:26;;;;;;;0.00;0.00;;;15.20;99.90;;;;;;4972319;28;20075;-82
2022/08/06 07:30:14;;;;;;;0.00;0.00;;;15.20;99.90;;;;;;4967725;28;20031;-83
2022/08/06 07:32:42;;;;;;;0.00;0.00;;;15.30;99.90;;;;;;4968034;28;20047;-82
2022/08/06 07:35:15;;;;;;;0.00;0.00;;;15.20;99.90;;;;;;4966839;29;20039;-83
2022/08/06 07:37:49;;;;;;;0.00;0.00;;;15.40;99.90;;;;;;4969487;28;20032;-85
2022/08/06 07:40:22;;;;;;;0.00;0.00;;;15.40;99.90;;;;;;4972606;28;20059;-83
2022/08/06 07:43:01;;;;;;;0.00;0.00;;;15.50;99.90;;;;;;4985437;28;20043;-84
2022/08/06 07:45:33;;;;;;;0.00;0.00;;;15.50;99.90;;;;;;4969406;28;20130;-83
2022/08/06 07:48:24;;;;;;;0.00;0.00;;;15.50;99.90;;;;;;4963565;28;20031;-83
2022/08/06 07:50:53;;;;;;;0.00;0.00;;;15.60;99.90;;;;;;4968539;28;20023;-83
2022/08/06 07:53:21;;;;;;;0.00;0.00;;;15.80;99.90;;;;;;4973176;28;20031;-82
2022/08/06 07:56:11;;;;;;;0.00;0.00;;;15.70;99.90;;;;;;4971152;28;20098;-83
2022/08/06 07:58:41;;;;;;;0.00;0.00;;;15.90;99.90;;;;;;4971310;28;20051;-83
2022/08/06 08:01:13;;;;;;;0.00;0.00;;;15.90;99.90;;;;;;4973443;28;20031;-83
2022/08/06 08:06:51;;;;;;;0.00;0.00;;;16.00;99.90;;;;;;4966149;28;20137;-86
2022/08/06 08:09:21;;;;;;;0.00;0.00;;;16.00;99.90;;;;;;4971460;28;20031;-83
2022/08/06 08:12:11;;;;;;;;;;;16.10;99.90;;;;;;4971520;28;20067;-84
2022/08/06 08:14:58;;;;;;;0.00;0.00;;;16.20;99.90;;;;;;4973341;28;19961;-84
2022/08/06 08:17:30;;;;;;;0.00;0.00;;;16.30;99.90;;;;;;4971289;28;20031;-84
2022/08/06 08:20:03;;;;;;;0.00;0.00;;;16.30;99.90;;;;;;4973599;28;20031;-83
2022/08/06 08:22:41;;;;;;;0.00;0.00;;;16.30;99.90;;;;;;4972930;28;20049;-83
2022/08/06 08:25:16;;;;;;;0.00;0.00;;;16.30;99.90;;;;;;4967751;28;20401;-85
2022/08/06 08:28:04;;;;;;;0.00;0.00;;;16.40;99.90;;;;;;4972695;28;20276;-82
2022/08/06 08:30:39;;;;;;;0.00;0.00;;;16.50;99.90;;;;;;4970875;28;20035;-82
2022/08/06 08:33:09;;;;;;;0.00;0.00;;;16.60;99.90;;;;;;4964734;28;20051;-82
2022/08/06 08:35:37;;;;;;;0.00;0.00;;;16.60;99.90;;;;;;4981743;28;20036;-82
2022/08/06 08:38:04;;;;;;;0.00;0.00;;;16.60;99.70;;;;;;4986692;28;20039;-84
2022/08/06 08:40:36;;;;;;;0.00;0.00;;;16.60;98.20;;;;;;4964858;28;20043;-82
2022/08/06 08:43:07;;;;;;;0.00;0.00;;;16.80;97.30;;;;;;4971020;28;20055;-82
2022/08/06 08:45:43;;;;;;;0.00;0.00;;;16.90;98.20;;;;;;4985132;28;20027;-82
2022/08/06 08:48:22;;;;;;;0.00;0.00;;;17.00;99.10;;;;;;4969644;28;20066;-82
2022/08/06 08:50:55;;;;;;;0.00;0.00;;;17.10;98.20;;;;;;4967587;28;20070;-82
2022/08/06 08:53:30;;;;;;;0.00;0.00;;;17.10;97.40;;;;;;4969577;28;20053;-84
2022/08/06 08:56:12;;;;;;;0.00;0.00;;;17.10;95.90;;;;;;4967738;28;20031;-82
2022/08/06 08:59:00;;;;;;;0.00;0.00;;;17.00;96.10;;;;;;4972247;28;20102;-82
2022/08/06 09:01:47;;;;;;;0.00;0.00;;;17.10;96.70;;;;;;4968246;28;20059;-81
2022/08/06 09:04:24;;;;;;;0.00;0.00;;;17.10;96.70;;;;;;4968425;28;20039;-83
2022/08/06 09:06:55;;;;;;;0.00;0.00;;;17.30;96.30;;;;;;4976349;28;20038;-82
2022/08/06 09:09:24;;;;;;;0.00;0.00;;;17.40;94.90;;;;;;4973825;28;20031;-81
2022/08/06 09:11:58;;;;;;;0.00;0.00;;;17.30;96.40;;;;;;4977062;28;20068;-82
2022/08/06 09:14:46;;;;;;;0.00;0.00;;;17.50;97.00;;;;;;4987454;28;20052;-81
2022/08/06 09:17:13;;;;;;;0.00;0.00;;;17.50;95.40;;;;;;4976861;28;20055;-82
2022/08/06 09:20:03;;;;;;;0.00;0.00;;;18.00;96.10;;;;;;4981980;28;20120;-83
2022/08/06 09:22:33;;;;;;;0.00;0.00;;;17.70;96.20;;;;;;4991960;28;20035;-83
2022/08/06 09:25:02;;;;;;;0.00;0.00;;;17.80;96.50;;;;;;4974086;28;20058;-83
2022/08/06 09:27:34;;;;;;;0.00;0.00;;;17.80;95.40;;;;;;4976018;29;20055;-81
2022/08/06 09:30:22;;;;;;;0.00;0.00;;;17.80;95.70;;;;;;4975753;29;20059;-83
2022/08/06 09:32:57;;;;;;;0.00;0.00;;;17.80;96.40;;;;;;4991441;28;20057;-82
2022/08/06 09:35:57;;;;;;;0.00;0.00;;;17.90;96.10;;;;;;4970089;28;20070;-82
2022/08/06 09:38:25;;;;;;;0.00;0.00;;;18.00;95.40;;;;;;4975104;28;20606;-82
2022/08/06 09:41:07;;;;;;;0.00;0.00;;;18.00;95.70;;;;;;4973872;29;20051;-84
2022/08/06 09:43:42;;;;;;;0.00;0.00;;;18.00;94.80;;;;;;4976711;29;20046;-85
2022/08/06 09:46:37;;;;;;;0.00;0.00;;;18.80;95.10;;;;;;4973744;28;20063;-81
2022/08/06 09:49:04;;;;;;;0.00;0.00;;;18.30;95.10;;;;;;4968561;29;20055;-83
2022/08/06 09:52:11;;;;;;;0.00;0.00;;;18.40;94.50;;;;;;4977113;28;20050;-83
2022/08/06 09:54:39;;;;;;;0.00;0.00;;;19.10;95.30;;;;;;4974619;29;20048;-82
2022/08/06 09:57:06;;;;;;;0.00;0.00;;;18.70;93.40;;;;;;4978763;28;20083;-82
2022/08/06 09:59:43;;;;;;;0.00;0.00;;;19.60;94.30;;;;;;4975082;28;20107;-83
2022/08/06 10:02:17;;;;;;;0.00;0.00;;;18.60;92.90;;;;;;4974399;28;20051;-82
2022/08/06 10:04:49;;;;;;;0.00;0.00;;;18.70;93.10;;;;;;4990435;28;20066;-84
2022/08/06 10:07:29;;;;;;;0.00;0.00;;;18.70;92.70;;;;;;4973695;29;20071;-83
2022/08/06 10:10:07;;;;;;;0.00;0.00;;;19.80;93.20;;;;;;4966872;28;20043;-83
2022/08/06 10:12:35;;;;;;;0.00;0.00;;;18.50;92.50;;;;;;4975955;28;20057;-83
2022/08/06 10:15:04;;;;;;;0.00;0.00;;;19.10;93.10;;;;;;4974273;28;20051;-85
2022/08/06 10:17:34;;;;;;;0.00;0.00;;;18.50;93.30;;;;;;4975367;29;20055;-84
2022/08/06 10:20:19;;;;;;;0.00;0.00;;;18.50;90.40;;;;;;4970115;28;20071;-83
2022/08/06 10:22:54;;;;;;;0.00;0.00;;;18.70;92.40;;;;;;4967920;28;20070;-86
2022/08/06 10:25:26;;;;;;;0.00;0.00;;;18.90;90.60;;;;;;4967176;28;20062;-82
2022/08/06 10:27:57;;;;;;;0.00;0.00;;;19.60;90.50;;;;;;4970492;28;20038;-84
2022/08/06 10:30:26;;;;;;;0.00;0.00;;;18.90;89.10;;;;;;4973502;28;20058;-86
2022/08/06 10:33:06;;;;;;;0.00;0.00;;;18.70;90.40;;;;;;4973234;28;20392;-85
2022/08/06 10:35:46;;;;;;;0.00;0.00;;;18.80;90.70;;;;;;4974673;28;20053;-86
2022/08/06 10:38:21;;;;;;;0.00;0.00;;;19.00;90.70;;;;;;4973762;28;20058;-85
2022/08/06 10:41:05;;;;;;;0.03;0.03;;;19.10;91.10;;;;;;4976306;29;20055;-86
2022/08/06 10:43:35;;;;;;;0.00;0.00;;;19.40;90.00;;;;;;4973849;28;20057;-83
2022/08/06 10:46:04;;;;;;;0.00;0.00;;;19.30;90.50;;;;;;4976049;28;20031;-85
2022/08/06 10:48:33;;;;;;;0.00;0.00;;;19.40;91.00;;;;;;4974492;28;20044;-86
2022/08/06 10:51:22;;;;;;;0.00;0.00;;;19.30;89.50;;;;;;4991296;28;20075;-85
2022/08/06 10:54:11;;;;;;;0.00;0.00;;;19.10;90.30;;;;;;4972855;29;20058;-85
2022/08/06 10:56:46;;;;;;;0.00;0.00;;;19.90;91.40;;;;;;4975337;28;20050;-85
2022/08/06 10:59:14;;;;;;;0.00;0.00;;;19.20;91.00;;;;;;4977800;28;20039;-85
2022/08/06 11:01:52;;;;;;;0.00;0.00;;;19.10;90.00;;;;;;4972381;28;20040;-84
2022/08/06 11:04:34;;;;;;;0.00;0.00;;;20.70;87.00;;;;;;4972507;28;20043;-85
2022/08/06 11:07:26;;;;;;;0.00;0.00;;;19.00;86.40;;;;;;4975155;28;20051;-83
2022/08/06 11:10:40;;;;;;;0.00;0.00;;;19.20;85.50;;;;;;4971371;28;20066;-84
2022/08/06 11:13:15;;;;;;;0.00;0.00;;;19.40;84.50;;;;;;4971049;29;20061;-85
2022/08/06 11:15:43;;;;;;;0.00;0.00;;;19.70;87.10;;;;;;4989646;28;20044;-85
2022/08/06 11:18:12;;;;;;;0.00;0.00;;;21.20;87.20;;;;;;4968933;28;20062;-86
2022/08/06 11:20:48;;;;;;;0.00;0.00;;;20.00;87.60;;;;;;4970560;28;20043;-85
2022/08/06 11:23:30;;;;;;;0.00;0.00;;;19.90;85.00;;;;;;4970986;28;20044;-85
2022/08/06 11:26:35;;;;;;;0.00;0.00;;;19.70;87.10;;;;;;4972889;28;20074;-85
2022/08/06 11:29:06;;;;;;;0.00;0.00;;;19.60;84.50;;;;;;4972511;29;20785;-83
2022/08/06 11:31:39;;;;;;;0.00;0.00;;;19.60;85.10;;;;;;4967571;28;20055;-84
2022/08/06 11:34:20;;;;;;;0.00;0.00;;;19.80;84.50;;;;;;4964217;28;20045;-83
2022/08/06 11:37:00;;;;;;;0.00;0.00;;;19.90;85.00;;;;;;4971244;29;20039;-84
2022/08/06 11:40:06;;;;;;;0.00;0.00;;;20.00;85.10;;;;;;4969309;28;20111;-84
2022/08/06 11:42:42;;;;;;;0.00;0.00;;;20.50;85.90;;;;;;4960905;28;20055;-84
2022/08/06 11:45:17;;;;;;;0.00;0.00;;;20.60;83.30;;;;;;4962324;28;20097;-84
2022/08/06 11:48:05;;;;;;;0.00;0.00;;;20.70;82.40;;;;;;4960105;28;20119;-85
2022/08/06 11:50:38;;;;;;;0.00;0.00;;;20.80;84.80;;;;;;4972093;28;20083;-84
2022/08/06 11:53:07;;;;;;;0.00;0.00;;;20.90;86.50;;;;;;4969331;28;20055;-84
2022/08/06 11:56:03;;;;;;;0.00;0.00;;;20.70;85.10;;;;;;4967180;28;20054;-84
2022/08/06 11:58:31;;;;;;;0.00;0.00;;;20.40;84.00;;;;;;4986998;28;20098;-84
2022/08/06 12:01:00;;;;;;;0.00;0.00;;;20.00;85.50;;;;;;4971431;28;20046;-85
2022/08/06 12:03:47;;;;;;;0.00;0.00;;;19.90;84.50;;;;;;4972270;28;20062;-84
2022/08/06 12:06:22;;;;;;;0.00;0.00;;;20.10;86.40;;;;;;4972186;28;20047;-84
2022/08/06 12:09:09;;;;;;;0.00;0.00;;;22.50;86.10;;;;;;4973819;28;20051;-85
2022/08/06 12:11:48;;;;;;;0.00;0.00;;;20.50;86.20;;;;;;4970216;28;20027;-84
2022/08/06 12:14:39;;;;;;;0.00;0.00;;;20.40;82.60;;;;;;4968548;28;20035;-86
2022/08/06 12:17:16;;;;;;;0.00;0.00;;;20.50;85.70;;;;;;4983955;28;20061;-86
2022/08/06 12:19:45;;;;;;;0.00;0.00;;;20.70;81.00;;;;;;4969783;28;20047;-83
2022/08/06 12:22:30;;;;;;;0.00;0.00;;;20.80;83.40;;;;;;4968606;28;20044;-84
2022/08/06 12:24:59;;;;;;;0.00;0.00;;;21.20;82.10;;;;;;4985416;28;20043;-83
2022/08/06 12:27:40;;;;;;;0.00;0.00;;;21.50;81.60;;;;;;4982387;28;20044;-84
2022/08/06 12:30:22;;;;;;;0.00;0.00;;;21.70;87.30;;;;;;4946895;28;1028017;-85
2022/08/06 12:33:04;;;;;;;0.00;0.00;;;21.70;88.40;;;;;;4966725;29;20059;-84
2022/08/06 12:35:48;;;;;;;0.00;0.00;;;21.60;85.70;;;;;;4963189;28;20047;-85
2022/08/06 12:38:14;;;;;;;0.00;0.00;;;21.50;80.60;;;;;;4970421;28;20067;-85
2022/08/06 12:40:51;;;;;;;0.00;0.00;;;22.00;83.20;;;;;;4967819;28;20035;-85
2022/08/06 12:43:19;;;;;;;0.00;0.00;;;21.30;82.90;;;;;;4987349;28;20036;-83
2022/08/06 12:46:07;;;;;;;0.00;0.00;;;21.20;80.70;;;;;;4971107;28;20131;-84
2022/08/06 12:48:47;;;;;;;0.00;0.00;;;21.10;82.90;;;;;;4972492;29;20061;-84
2022/08/06 12:51:14;;;;;;;0.00;0.00;;;21.40;83.70;;;;;;4969105;28;20035;-85
2022/08/06 12:53:47;;;;;;;0.00;0.00;;;21.70;80.30;;;;;;4967422;28;20047;-84
2022/08/06 12:56:15;;;;;;;0.00;0.00;;;21.70;81.20;;;;;;4966111;28;20054;-84
2022/08/06 12:58:58;;;;;;;0.00;0.00;;;21.90;85.90;;;;;;4966929;28;20029;-85
2022/08/06 13:01:27;;;;;;;0.00;0.00;;;22.20;83.00;;;;;;4967124;28;20058;-84
2022/08/06 13:04:15;;;;;;;0.00;0.00;;;21.60;80.30;;;;;;4973922;28;20102;-85
2022/08/06 13:06:44;;;;;;;0.00;0.00;;;21.90;80.90;;;;;;4973123;28;20053;-85
2022/08/06 13:09:14;;;;;;;0.00;0.00;;;21.40;79.30;;;;;;4966318;28;20062;-82
2022/08/06 13:11:41;;;;;;;0.00;0.00;;;21.40;81.30;;;;;;4988663;28;20047;-85
2022/08/06 13:14:17;;;;;;;0.00;0.00;;;21.50;81.00;;;;;;4972576;28;20035;-86
2022/08/06 13:16:48;;;;;;;0.00;0.00;;;21.20;78.80;;;;;;4968561;28;20047;-86
2022/08/06 13:19:23;;;;;;;0.00;0.00;;;21.20;80.80;;;;;;4976929;28;20075;-85
2022/08/06 13:22:00;;;;;;;0.00;0.00;;;21.90;82.60;;;;;;4970342;29;20033;-85
2022/08/06 13:24:29;;;;;;;0.00;0.00;;;23.20;83.80;;;;;;4967483;28;20040;-84
2022/08/06 13:27:01;;;;;;;0.00;0.00;;;21.90;79.50;;;;;;4964600;28;20034;-85
2022/08/06 13:29:31;;;;;;;0.00;0.00;;;22.20;78.30;;;;;;4984300;28;20031;-85
2022/08/06 13:32:24;;;;;;;0.00;0.00;;;22.50;76.20;;;;;;4966431;29;20038;-84
2022/08/06 13:35:01;;;;;;;0.00;0.00;;;22.70;76.90;;;;;;4969289;29;20079;-85
2022/08/06 13:37:47;;;;;;;0.00;0.00;;;23.10;75.00;;;;;;4971484;28;20044;-85
2022/08/06 13:40:39;;;;;;;0.00;0.00;;;23.40;73.00;;;;;;4967727;29;20047;-84
2022/08/06 13:43:12;;;;;;;0.00;0.00;;;22.90;75.20;;;;;;4970428;28;20038;-85